Time;durP1;ratioP1;P1;durP2;ratioP2;P2;SDS_P1;SDS_P2;PMS_P1;PMS_P2;Temp;Humidity;BMP_temperature;BMP_pressure;BME280_temperature;BME280_humidity;BME280_pressure;Samples;Min_cycle;Max_cycle;Signal;HPM_P1;HPM_P2
2024/01/24 00:01:21;;;;;;;4.20;1.30;;;;;;;15.56;80.46;101246.94;4972333;28;20114;-50
2024/01/24 00:03:46;;;;;;;6.65;1.70;;;;;;;15.25;82.00;101253.94;4971412;28;20039;-47
2024/01/24 00:06:12;;;;;;;5.15;1.30;;;;;;;15.34;81.39;101210.16;4970309;28;20085;-45
2024/01/24 00:08:37;;;;;;;5.60;1.60;;;;;;;15.33;81.47;101260.06;4971017;28;20041;-48
2024/01/24 00:11:02;;;;;;;10.07;1.65;;;;;;;15.37;82.08;101249.56;4970735;28;20037;-46
2024/01/24 00:13:28;;;;;;;6.05;1.45;;;;;;;15.08;83.63;101272.31;4970016;28;20073;-46
2024/01/24 00:15:53;;;;;;;5.65;1.50;;;;;;;15.39;83.37;101279.34;4970323;28;20493;-45
2024/01/24 00:18:18;;;;;;;8.95;1.60;;;;;;;15.35;82.36;101271.47;4970570;28;20035;-45
2024/01/24 00:20:44;;;;;;;7.53;1.50;;;;;;;15.40;82.45;101270.59;4970058;28;20314;-48
2024/01/24 00:23:10;;;;;;;9.95;1.42;;;;;;;15.48;81.90;101269.72;4969925;28;20452;-45
2024/01/24 00:25:35;;;;;;;11.57;1.50;;;;;;;15.17;82.91;101272.34;4970427;28;20567;-46
2024/01/24 00:28:01;;;;;;;5.85;1.05;;;;;;;15.05;82.90;101243.44;4971210;28;20046;-46
2024/01/24 00:30:26;;;;;;;7.25;1.40;;;;;;;15.21;83.41;101274.09;4972287;28;20502;-44
2024/01/24 00:32:51;;;;;;;6.05;1.27;;;;;;;15.23;82.60;101300.34;4973214;28;20052;-43
2024/01/24 00:35:17;;;;;;;6.00;1.45;;;;;;;15.58;81.84;101308.28;4973064;28;20031;-45
2024/01/24 00:37:42;;;;;;;6.78;1.55;;;;;;;15.35;81.78;101276.72;4971457;28;20035;-45
2024/01/24 00:40:08;;;;;;;6.63;1.30;;;;;;;15.56;81.59;101276.75;4970789;28;20721;-46
2024/01/24 00:42:33;;;;;;;6.40;1.65;;;;;;;14.84;83.35;101285.41;4970527;28;20042;-47
2024/01/24 00:44:59;;;;;;;6.95;1.40;;;;;;;15.36;81.84;101276.72;4970724;28;20027;-48
2024/01/24 00:47:24;;;;;;;7.53;1.60;;;;;;;15.27;81.74;101307.34;4969857;28;20035;-46
2024/01/24 00:49:50;;;;;;;8.10;1.23;;;;;;;15.13;81.79;101291.56;4971687;28;20035;-47
2024/01/24 00:52:15;;;;;;;8.00;1.38;;;;;;;15.31;81.43;101306.47;4973958;28;20130;-51
2024/01/24 00:54:40;;;;;;;5.70;1.35;;;;;;;14.96;83.20;101312.56;4974247;28;20489;-44
2024/01/24 00:57:06;;;;;;;9.07;1.38;;;;;;;15.35;81.78;101284.59;4974027;28;20031;-47
2024/01/24 00:59:31;;;;;;;12.10;1.42;;;;;;;14.93;83.86;101253.94;4975141;28;20054;-44
2024/01/24 01:01:56;;;;;;;8.15;1.00;;;;;;;14.64;85.71;101279.22;4975258;28;20409;-47
2024/01/24 01:04:22;;;;;;;8.38;1.33;;;;;;;14.67;86.52;101266.97;4974430;28;20042;-47
2024/01/24 01:06:47;;;;;;;6.38;1.42;;;;;;;14.70;86.06;101269.59;4973757;28;20486;-47
2024/01/24 01:09:12;;;;;;;9.85;1.77;;;;;;;14.98;85.45;101275.81;4973987;28;20109;-46
2024/01/24 01:11:38;;;;;;;11.80;1.90;;;;;;;14.87;85.69;101253.91;4973841;28;20458;-47
2024/01/24 01:14:04;;;;;;;7.70;1.60;;;;;;;15.21;84.28;101265.31;4974151;28;20046;-44
2024/01/24 01:16:29;;;;;;;9.30;1.42;;;;;;;14.73;85.91;101281.88;4972922;28;20077;-48
2024/01/24 01:18:54;;;;;;;9.95;1.17;;;;;;;14.97;84.82;101279.31;4974001;28;20062;-47
2024/01/24 01:21:20;;;;;;;8.60;1.25;;;;;;;15.18;83.08;101249.59;4973256;28;20043;-46
2024/01/24 01:23:45;;;;;;;6.97;1.48;;;;;;;14.57;85.10;101262.59;4973880;28;20062;-44
2024/01/24 01:26:10;;;;;;;8.95;1.45;;;;;;;14.74;84.91;101257.38;4973586;28;20033;-46
2024/01/24 01:28:35;;;;;;;13.80;1.80;;;;;;;15.02;83.58;101254.81;4973417;28;20054;-46
2024/01/24 01:31:01;;;;;;;7.60;1.75;;;;;;;14.97;83.94;101281.94;4974918;28;20446;-47
2024/01/24 01:33:26;;;;;;;10.90;1.98;;;;;;;15.20;83.09;101261.81;4973809;28;20046;-45
2024/01/24 01:35:51;;;;;;;13.52;1.60;;;;;;;14.85;84.16;101260.91;4973846;28;20035;-47
2024/01/24 01:38:17;;;;;;;8.48;1.60;;;;;;;15.22;82.66;101277.59;4973651;28;20053;-49
2024/01/24 01:40:42;;;;;;;9.68;1.48;;;;;;;14.73;83.51;101276.63;4973682;28;20043;-46
2024/01/24 01:43:14;;;;;;;8.35;1.58;;;;;;;14.68;83.82;101267.88;4973867;28;20035;-45
2024/01/24 01:45:40;;;;;;;10.50;1.55;;;;;;;15.30;81.88;101281.09;4973062;28;20065;-51
2024/01/24 01:48:07;;;;;;;12.55;1.70;;;;;;;15.02;82.55;101269.69;4988119;28;20027;-47
2024/01/24 01:50:33;;;;;;;9.32;1.50;;;;;;;14.96;83.17;101278.41;4972844;28;20034;-45
2024/01/24 01:52:59;;;;;;;12.75;1.75;;;;;;;14.68;84.24;101275.75;4973441;28;20042;-45
2024/01/24 01:55:24;;;;;;;12.63;1.77;;;;;;;14.62;84.48;101281.84;4972538;28;20027;-45
2024/01/24 01:57:50;;;;;;;14.10;1.90;;;;;;;15.37;81.89;101267.06;4971763;28;20030;-47
2024/01/24 02:00:20;;;;;;;11.93;1.77;;;;;;;14.87;82.87;101267.91;4973394;28;20674;-48
2024/01/24 02:02:46;;;;;;;11.40;2.00;;;;;;;14.92;82.85;101274.06;4974367;28;20038;-46
2024/01/24 02:05:13;;;;;;;14.48;2.20;;;;;;;14.68;83.19;101302.84;5005624;23;20613;-58
2024/01/24 02:07:38;;;;;;;11.82;1.92;;;;;;;14.85;84.23;101281.91;5010646;28;20034;-51
2024/01/24 02:10:04;;;;;;;13.80;2.13;;;;;;;14.85;82.97;101295.91;5011962;28;20461;-46
2024/01/24 02:12:29;;;;;;;13.68;2.25;;;;;;;14.27;85.14;101286.91;5011247;28;20038;-47
2024/01/24 02:14:54;;;;;;;17.85;2.60;;;;;;;14.73;83.42;101308.13;5002927;28;20030;-46
2024/01/24 02:17:19;;;;;;;16.85;2.65;;;;;;;14.84;82.59;101311.63;4991251;28;20046;-46
2024/01/24 02:19:45;;;;;;;16.90;3.25;;;;;;;14.36;84.63;101333.28;4992708;28;20030;-45
2024/01/24 02:22:10;;;;;;;15.90;2.90;;;;;;;14.79;82.77;101316.88;4991598;28;20034;-45
2024/01/24 02:24:36;;;;;;;21.92;3.70;;;;;;;14.60;82.79;101330.81;4992021;28;20058;-46
2024/01/24 02:27:01;;;;;;;17.73;3.10;;;;;;;14.53;84.24;101308.91;4992284;28;20061;-47
2024/01/24 02:29:26;;;;;;;20.30;3.50;;;;;;;14.83;83.16;101312.50;4991468;28;20038;-46
2024/01/24 02:31:51;;;;;;;17.10;3.08;;;;;;;14.66;82.88;101312.47;4991698;28;20050;-49
2024/01/24 02:34:17;;;;;;;23.00;3.47;;;;;;;14.37;83.62;101295.69;4991783;28;20034;-45
2024/01/24 02:36:42;;;;;;;17.58;3.40;;;;;;;14.48;84.13;101304.53;4991654;28;20034;-45
2024/01/24 02:39:08;;;;;;;18.15;3.40;;;;;;;14.77;81.88;101312.50;4991606;28;20496;-47
2024/01/24 02:41:33;;;;;;;21.30;3.30;;;;;;;14.46;82.79;101315.00;4990987;28;20512;-51
2024/01/24 02:43:59;;;;;;;31.00;4.65;;;;;;;14.37;83.35;101321.94;4991408;28;20057;-47
2024/01/24 02:46:24;;;;;;;28.35;4.63;;;;;;;13.94;85.23;101307.69;4990636;28;20095;-46
2024/01/24 02:48:50;;;;;;;28.27;4.18;;;;;;;14.40;83.30;101327.19;4991611;28;20076;-45
2024/01/24 02:51:25;;;;;;;22.05;4.05;;;;;;;14.06;84.02;101313.00;4989932;28;20080;-49
2024/01/24 02:53:50;;;;;;;21.23;4.15;;;;;;;14.04;84.68;101310.38;4991794;28;20504;-47
2024/01/24 02:56:16;;;;;;;23.70;4.25;;;;;;;14.04;83.94;101315.63;4996503;28;20099;-46
2024/01/24 02:58:41;;;;;;;22.33;4.65;;;;;;;14.15;83.86;101349.75;5005866;28;20045;-52
2024/01/24 03:01:06;;;;;;;24.30;4.43;;;;;;;14.02;83.28;101361.06;5010029;28;20038;-50
2024/01/24 03:03:32;;;;;;;26.00;4.47;;;;;;;13.85;83.49;101341.69;4995403;28;20038;-46
2024/01/24 03:05:57;;;;;;;28.35;4.38;;;;;;;14.35;82.33;101340.28;4990807;28;20092;-49
2024/01/24 03:08:22;;;;;;;32.25;4.30;;;;;;;14.18;82.89;101337.56;4990579;28;20026;-48
2024/01/24 03:10:48;;;;;;;31.00;4.97;;;;;;;13.97;83.17;101333.91;4990754;28;20045;-47
2024/01/24 03:13:13;;;;;;;29.40;4.60;;;;;;;13.84;83.41;101363.53;4989514;28;20512;-48
2024/01/24 03:15:38;;;;;;;27.52;4.78;;;;;;;14.01;83.34;101335.69;4990494;28;20058;-45
2024/01/24 03:18:04;;;;;;;24.05;3.90;;;;;;;14.29;82.30;101337.63;4990392;28;20128;-45
2024/01/24 03:20:29;;;;;;;27.65;3.85;;;;;;;14.09;81.32;101324.38;4990263;28;20042;-48
2024/01/24 03:22:54;;;;;;;20.75;3.35;;;;;;;13.91;83.20;101342.59;4990537;28;20050;-48
2024/01/24 03:25:20;;;;;;;23.35;3.75;;;;;;;13.90;82.11;101343.50;4989881;28;20460;-45
2024/01/24 03:27:45;;;;;;;26.38;3.95;;;;;;;13.68;82.59;101349.41;4990481;28;20030;-48
2024/01/24 03:30:11;;;;;;;22.60;3.65;;;;;;;14.23;80.65;101356.81;4990702;28;20523;-47
2024/01/24 03:32:36;;;;;;;30.05;4.00;;;;;;;13.78;82.26;101352.13;4990162;28;20045;-49
2024/01/24 03:35:02;;;;;;;30.55;3.45;;;;;;;13.65;81.96;101321.47;4990755;28;20053;-46
2024/01/24 03:37:27;;;;;;;30.45;3.90;;;;;;;13.84;81.37;101345.19;4990108;28;20041;-49
2024/01/24 03:39:53;;;;;;;29.58;4.15;;;;;;;13.58;80.69;101352.84;4990868;28;20038;-45
2024/01/24 03:42:18;;;;;;;31.80;4.38;;;;;;;13.72;79.78;101359.09;4990081;28;20493;-47
2024/01/24 03:44:43;;;;;;;26.23;3.88;;;;;;;14.28;77.99;101332.34;4990510;28;20042;-46
2024/01/24 03:47:09;;;;;;;24.65;3.85;;;;;;;13.96;78.90;101346.16;4989886;28;20404;-45
2024/01/24 03:49:34;;;;;;;27.85;3.65;;;;;;;14.39;77.61;101360.47;4990006;28;20031;-46
2024/01/24 03:51:59;;;;;;;31.58;4.13;;;;;;;13.55;80.33;101379.00;4990151;28;20030;-47
2024/01/24 03:54:25;;;;;;;30.45;4.35;;;;;;;14.30;78.29;101377.84;4989606;28;20034;-48
2024/01/24 03:56:50;;;;;;;30.73;4.32;;;;;;;13.93;79.21;101374.09;4989722;28;20085;-46
2024/01/24 03:59:16;;;;;;;32.53;4.55;;;;;;;13.92;78.28;101377.56;4989723;28;20030;-47
2024/01/24 04:01:42;;;;;;;34.00;4.85;;;;;;;13.89;77.83;101367.06;4990172;28;20037;-46
2024/01/24 04:04:08;;;;;;;38.03;4.85;;;;;;;13.69;77.95;101380.00;4989995;28;20038;-48
2024/01/24 04:06:33;;;;;;;36.08;5.05;;;;;;;13.84;77.19;101376.66;4989099;28;20085;-47
2024/01/24 04:08:59;;;;;;;34.45;5.22;;;;;;;13.90;76.80;101377.56;4990103;28;20057;-47
2024/01/24 04:11:24;;;;;;;36.92;4.65;;;;;;;13.85;77.02;101391.47;4989671;28;20038;-45
2024/01/24 04:13:53;;;;;;;29.42;4.28;;;;;;;13.79;76.50;101384.44;4989803;28;20034;-46
2024/01/24 04:16:18;;;;;;;30.58;4.63;;;;;;;13.98;75.76;101368.00;4989016;28;20382;-45
2024/01/24 04:18:44;;;;;;;35.22;5.00;;;;;;;13.94;76.14;101384.59;4989780;28;20058;-46
2024/01/24 04:21:09;;;;;;;36.00;5.03;;;;;;;14.29;75.03;101392.69;4989690;28;20034;-45
2024/01/24 04:23:35;;;;;;;31.27;5.47;;;;;;;13.57;76.79;101382.50;4990516;28;20057;-47
2024/01/24 04:26:03;;;;;;;33.45;4.78;;;;;;;14.13;75.03;101381.25;4993610;28;20035;-48
2024/01/24 04:28:28;;;;;;;40.42;5.55;;;;;;;13.62;76.67;101410.50;4993604;28;20041;-47
2024/01/24 04:30:53;;;;;;;33.22;4.82;;;;;;;13.76;75.36;101398.41;4993889;28;20030;-48
2024/01/24 04:33:19;;;;;;;42.78;4.82;;;;;;;14.15;73.56;101418.81;4993375;28;20385;-47
2024/01/24 04:35:44;;;;;;;40.25;5.55;;;;;;;14.15;72.27;101431.91;4993386;28;20084;-48
2024/01/24 04:38:09;;;;;;;35.03;4.90;;;;;;;14.21;71.27;101426.72;4993414;28;20034;-46
2024/01/24 04:40:35;;;;;;;35.53;5.32;;;;;;;14.31;70.48;101443.44;4993473;28;20080;-45
2024/01/24 04:43:00;;;;;;;44.80;5.10;;;;;;;13.93;71.28;101448.34;4994055;28;20026;-46
2024/01/24 04:45:25;;;;;;;39.35;5.43;;;;;;;14.04;71.38;101456.31;4993097;28;20409;-45
2024/01/24 04:47:50;;;;;;;35.13;5.22;;;;;;;14.17;70.15;101468.66;4993388;28;20034;-49
2024/01/24 04:50:16;;;;;;;36.88;5.28;;;;;;;13.88;71.47;101460.56;4993067;28;20033;-46
2024/01/24 04:52:41;;;;;;;40.00;5.15;;;;;;;13.93;70.41;101468.44;4993506;28;20073;-46
2024/01/24 04:55:11;;;;;;;38.38;5.60;;;;;;;13.92;70.51;101458.81;4993326;28;20034;-46
2024/01/24 04:57:37;;;;;;;35.08;5.03;;;;;;;13.99;70.56;101444.91;4992794;28;20038;-47
2024/01/24 05:00:07;;;;;;;37.55;4.80;;;;;;;14.18;69.64;101476.53;4993574;28;20029;-45
2024/01/24 05:02:33;;;;;;;35.58;5.00;;;;;;;13.79;70.36;101458.72;4992919;28;20513;-47
2024/01/24 05:04:58;;;;;;;36.50;5.28;;;;;;;14.02;69.00;101445.84;4993103;28;20448;-46
2024/01/24 05:07:23;;;;;;;42.63;5.40;;;;;;;13.66;70.58;101455.97;4992554;28;20037;-47
2024/01/24 05:09:49;;;;;;;40.75;6.80;;;;;;;13.75;68.87;101454.31;4993619;28;20054;-44
2024/01/24 05:12:14;;;;;;;39.85;5.45;;;;;;;13.56;69.50;101457.59;4993410;28;20512;-45
2024/01/24 05:14:40;;;;;;;48.05;6.15;;;;;;;13.69;70.05;101462.13;4993834;28;20497;-46
2024/01/24 05:17:05;;;;;;;39.92;5.18;;;;;;;13.78;70.18;101450.84;4993658;28;20036;-45
2024/01/24 05:19:30;;;;;;;45.10;5.63;;;;;;;13.71;70.16;101455.16;4993367;28;20042;-45
2024/01/24 05:21:56;;;;;;;45.92;5.68;;;;;;;13.36;70.87;101461.75;4994400;28;20093;-45
2024/01/24 05:24:21;;;;;;;41.58;5.53;;;;;;;13.12;72.04;101466.66;4993600;28;20515;-45
2024/01/24 05:26:47;;;;;;;49.00;5.93;;;;;;;13.09;72.73;101464.88;4993404;28;20046;-45
2024/01/24 05:29:12;;;;;;;47.33;6.05;;;;;;;13.38;71.70;101470.50;4993242;28;20030;-44
2024/01/24 05:31:38;;;;;;;39.38;5.85;;;;;;;13.21;71.94;101486.03;4993874;28;20038;-45
2024/01/24 05:34:03;;;;;;;44.08;5.00;;;;;;;13.35;71.08;101509.75;4992455;28;20061;-46
2024/01/24 05:36:29;;;;;;;40.25;5.45;;;;;;;13.41;69.33;101488.88;4991381;28;20046;-49
2024/01/24 05:38:55;;;;;;;33.58;5.78;;;;;;;13.57;67.80;101519.63;4992791;28;20030;-49
2024/01/24 05:41:20;;;;;;;39.67;5.40;;;;;;;13.44;67.73;101507.25;4992198;28;20066;-46
2024/01/24 05:43:45;;;;;;;45.38;5.85;;;;;;;13.86;66.29;101514.69;4990929;28;20038;-44
2024/01/24 05:46:11;;;;;;;36.50;6.22;;;;;;;13.48;67.53;101519.50;4990844;28;20030;-44
2024/01/24 05:48:36;;;;;;;46.33;6.60;;;;;;;13.33;67.60;101546.41;4992029;28;20666;-45
2024/01/24 05:51:01;;;;;;;45.97;6.53;;;;;;;13.41;68.08;101525.56;4992615;28;20038;-49
2024/01/24 05:53:27;;;;;;;49.78;6.68;;;;;;;13.07;71.55;101546.88;4992693;28;20043;-46
2024/01/24 05:55:53;;;;;;;39.22;6.32;;;;;;;12.84;73.05;101551.78;4993303;28;20106;-44
2024/01/24 05:58:18;;;;;;;49.85;6.65;;;;;;;12.83;73.52;101565.72;5004132;28;20106;-45
2024/01/24 06:00:43;;;;;;;44.03;6.40;;;;;;;13.23;72.30;101577.69;5014862;28;20034;-49
2024/01/24 06:03:09;;;;;;;49.97;6.15;;;;;;;13.13;72.42;101566.19;5013554;28;20057;-47
2024/01/24 06:05:34;;;;;;;45.78;5.68;;;;;;;12.83;72.30;101565.72;4994522;28;20048;-47
2024/01/24 06:07:59;;;;;;;44.60;6.28;;;;;;;12.96;71.81;101576.41;4993195;28;20034;-49
2024/01/24 06:10:25;;;;;;;41.45;6.03;;;;;;;13.02;71.40;101576.50;4991919;28;20042;-46
2024/01/24 06:12:50;;;;;;;45.92;6.20;;;;;;;13.02;69.45;101583.47;4992248;28;20046;-46
2024/01/24 06:15:18;;;;;;;42.22;5.55;;;;;;;12.94;68.83;101595.53;4991296;28;20098;-49
2024/01/24 06:17:43;;;;;;;35.47;5.70;;;;;;;12.86;67.82;101595.44;4991623;28;20404;-47
2024/01/24 06:20:09;;;;;;;33.95;5.20;;;;;;;13.34;65.46;101591.81;4991544;28;20030;-49
2024/01/24 06:22:35;;;;;;;41.17;5.97;;;;;;;13.33;64.47;101604.03;4989957;28;20424;-48
2024/01/24 06:25:02;;;;;;;36.92;5.80;;;;;;;13.44;62.93;101577.06;4991816;28;20031;-48
2024/01/24 06:27:27;;;;;;;42.33;6.03;;;;;;;13.29;62.63;101599.59;4990996;28;20058;-47
2024/01/24 06:29:53;;;;;;;35.63;5.05;;;;;;;13.57;61.82;101581.63;4992122;28;20133;-48
2024/01/24 06:32:18;;;;;;;47.00;5.40;;;;;;;13.54;61.08;101606.03;4991250;28;20038;-45
2024/01/24 06:34:43;;;;;;;44.92;5.47;;;;;;;13.40;61.13;101610.22;4991665;28;20041;-46
2024/01/24 06:37:09;;;;;;;43.15;5.28;;;;;;;13.06;61.92;101636.72;4990285;28;20031;-48
2024/01/24 06:39:35;;;;;;;36.40;5.00;;;;;;;13.24;61.60;101651.00;4991055;28;20058;-47
2024/01/24 06:42:00;;;;;;;41.08;5.40;;;;;;;13.79;60.00;101633.41;4991564;28;20485;-47
2024/01/24 06:44:26;;;;;;;38.42;5.55;;;;;;;13.20;61.94;101630.00;4990673;28;20038;-48
2024/01/24 06:46:51;;;;;;;47.13;5.40;;;;;;;13.74;60.15;101663.94;4990143;28;20457;-46
2024/01/24 06:49:16;;;;;;;39.83;5.03;;;;;;;13.25;61.29;101667.59;4989810;28;20034;-47
2024/01/24 06:51:42;;;;;;;39.72;5.72;;;;;;;13.46;60.93;101675.78;4989980;28;20033;-51
2024/01/24 06:54:07;;;;;;;37.83;5.68;;;;;;;13.26;60.77;101640.56;4991195;28;20154;-44
2024/01/24 06:56:33;;;;;;;37.60;5.57;;;;;;;13.07;61.49;101651.56;4990130;28;20052;-49
2024/01/24 06:58:58;;;;;;;34.65;5.32;;;;;;;13.09;61.20;101697.88;4990902;28;20089;-47
2024/01/24 07:01:24;;;;;;;34.05;5.00;;;;;;;13.38;60.73;101633.75;4990461;28;20093;-45
2024/01/24 07:03:49;;;;;;;41.22;5.38;;;;;;;13.58;60.30;101643.63;4990346;28;20038;-49
2024/01/24 07:06:14;;;;;;;41.05;5.28;;;;;;;13.18;61.27;101666.63;4989927;28;20038;-45
2024/01/24 07:08:46;;;;;;;38.13;5.40;;;;;;;13.16;60.73;101651.78;5080978;27;20406;-51
2024/01/24 07:11:12;;;;;;;35.85;5.05;;;;;;;13.41;59.53;101640.78;5066765;28;20045;-47
2024/01/24 07:13:37;;;;;;;44.30;6.53;;;;;;;13.20;59.86;101641.34;5066359;28;20037;-47
2024/01/24 07:16:04;;;;;;;35.83;5.45;;;;;;;13.55;59.70;101670.66;5083537;27;20036;-47
2024/01/24 07:18:33;;;;;;;42.67;5.40;;;;;;;13.32;59.56;101701.78;5085448;27;20028;-45
2024/01/24 07:20:59;;;;;;;38.15;5.15;;;;;;;13.55;58.96;101675.91;5086731;27;20127;-50
2024/01/24 07:23:24;;;;;;;36.22;5.28;;;;;;;13.33;59.54;101685.19;5085898;27;20123;-50
2024/01/24 07:25:50;;;;;;;36.63;4.95;;;;;;;13.11;59.64;101690.06;5086384;27;20041;-46
2024/01/24 07:28:15;;;;;;;44.55;5.60;;;;;;;13.17;59.83;101692.81;5086200;27;20039;-45
2024/01/24 07:30:41;;;;;;;49.38;5.90;;;;;;;13.31;59.42;101696.50;5085262;28;20553;-46
2024/01/24 07:33:07;;;;;;;38.95;5.50;;;;;;;13.30;59.73;101693.00;5086011;27;20044;-48
2024/01/24 07:35:32;;;;;;;40.20;6.00;;;;;;;13.45;58.57;101708.06;5085699;27;20071;-48
2024/01/24 07:37:58;;;;;;;36.33;5.32;;;;;;;13.00;60.35;101747.44;5086134;27;20062;-46
2024/01/24 07:40:24;;;;;;;37.97;4.70;;;;;;;13.07;59.81;101787.72;5086295;27;20044;-45
2024/01/24 07:42:50;;;;;;;45.22;5.40;;;;;;;12.92;60.27;101734.25;5086564;27;20051;-46
2024/01/24 07:45:15;;;;;;;44.45;5.47;;;;;;;13.36;59.14;101755.94;5085730;27;20422;-46
2024/01/24 07:47:41;;;;;;;38.25;5.75;;;;;;;13.30;59.76;101762.81;5086061;27;20040;-46
2024/01/24 07:50:06;;;;;;;40.47;5.88;;;;;;;13.54;59.44;101749.25;5086090;27;20037;-44
2024/01/24 07:52:32;;;;;;;37.33;5.13;;;;;;;13.30;60.04;101745.38;5085724;27;20040;-45
2024/01/24 07:54:57;;;;;;;38.58;5.50;;;;;;;13.32;60.10;101769.84;5086072;27;20127;-45
2024/01/24 07:57:22;;;;;;;35.78;5.22;;;;;;;13.02;60.80;101769.31;5084985;27;20037;-47
2024/01/24 07:59:47;;;;;;;38.10;5.53;;;;;;;13.30;60.04;101782.03;5084340;28;20025;-46
2024/01/24 08:02:13;;;;;;;38.90;5.82;;;;;;;13.44;59.23;101778.78;5085113;27;20418;-47
2024/01/24 08:07:08;;;;;;;35.65;5.72;;;;;;;13.19;60.24;101801.94;5083089;28;20032;-46
2024/01/24 08:09:34;;;;;;;44.92;5.60;;;;;;;13.45;59.67;101811.97;5086580;28;20036;-48
2024/01/24 08:11:59;;;;;;;44.47;5.65;;;;;;;13.15;60.52;101762.59;5086785;28;20039;-46
2024/01/24 08:14:25;;;;;;;38.78;5.50;;;;;;;13.02;60.46;101774.53;5086433;28;20714;-46
2024/01/24 08:17:03;;;;;;;41.22;5.30;;;;;;;13.33;59.87;101810.91;5086147;28;20029;-46
2024/01/24 08:19:29;;;;;;;37.20;5.15;;;;;;;13.35;60.36;101784.75;5076887;28;20493;-44
2024/01/24 08:21:54;;;;;;;45.60;6.13;;;;;;;12.90;60.96;101805.72;5074046;28;20143;-45
2024/01/24 08:24:20;;;;;;;38.13;5.72;;;;;;;13.23;60.82;101816.88;5073859;28;20037;-49
2024/01/24 08:26:46;;;;;;;33.17;5.07;;;;;;;13.37;59.63;101830.16;5073852;28;20032;-48
2024/01/24 08:29:11;;;;;;;38.97;6.22;;;;;;;13.07;60.75;101833.09;5073946;28;20691;-46
2024/01/24 08:31:36;;;;;;;38.60;5.80;;;;;;;13.06;60.79;101843.53;5073067;28;20040;-47
2024/01/24 08:34:02;;;;;;;37.13;5.32;;;;;;;12.79;61.60;101852.63;5073241;28;20036;-49
2024/01/24 08:36:27;;;;;;;35.33;5.57;;;;;;;13.22;60.33;101858.72;5071522;28;20063;-47
2024/01/24 08:38:53;;;;;;;39.30;5.45;;;;;;;13.15;60.27;101859.47;5072237;28;20556;-53
2024/01/24 08:41:18;;;;;;;42.05;5.30;;;;;;;13.29;60.09;101827.44;5071879;28;20037;-48
2024/01/24 08:43:43;;;;;;;40.55;6.15;;;;;;;13.14;60.91;101828.88;5072858;28;20033;-46
2024/01/24 08:46:09;;;;;;;37.75;5.55;;;;;;;13.04;61.47;101848.75;5071590;28;20090;-50
2024/01/24 08:48:34;;;;;;;40.53;5.72;;;;;;;13.12;60.98;101851.50;5071701;28;20040;-48
2024/01/24 08:50:59;;;;;;;34.08;5.07;;;;;;;12.98;61.30;101872.19;5072536;28;20083;-47
2024/01/24 08:53:25;;;;;;;42.20;5.78;;;;;;;12.92;61.77;101911.34;5053759;28;20447;-46
2024/01/24 08:55:50;;;;;;;41.97;5.80;;;;;;;12.99;61.65;101921.94;5072253;28;20127;-45
2024/01/24 08:58:15;;;;;;;41.70;6.00;;;;;;;13.06;61.32;101891.53;5069954;28;20032;-45
2024/01/24 09:00:41;;;;;;;43.67;5.57;;;;;;;12.90;61.71;101911.31;5072569;28;20119;-44
2024/01/24 09:03:06;;;;;;;33.90;5.32;;;;;;;13.19;60.78;101900.53;5072056;28;20024;-44
2024/01/24 09:05:31;;;;;;;39.35;6.00;;;;;;;13.42;60.07;101906.22;5070925;28;20048;-48
2024/01/24 09:07:57;;;;;;;39.92;5.32;;;;;;;13.17;61.05;101897.03;5073399;28;20087;-43
2024/01/24 09:10:22;;;;;;;35.53;5.35;;;;;;;13.01;61.54;101906.28;5072969;28;20115;-48
2024/01/24 09:12:48;;;;;;;44.00;5.78;;;;;;;13.36;60.54;101901.72;5073296;28;20036;-44
2024/01/24 09:15:13;;;;;;;39.70;6.07;;;;;;;12.84;62.39;101947.81;5071248;28;20041;-43
2024/01/24 09:17:39;;;;;;;39.30;5.63;;;;;;;12.99;61.54;101942.03;5070252;28;20040;-45
2024/01/24 09:20:06;;;;;;;34.78;4.95;;;;;;;13.08;61.54;101955.28;5071390;28;20062;-49
2024/01/24 09:22:31;;;;;;;37.15;5.25;;;;;;;13.04;61.51;101957.81;5071425;28;20036;-44
2024/01/24 09:24:57;;;;;;;38.22;5.57;;;;;;;13.19;61.44;101982.59;5071963;28;20043;-46
2024/01/24 09:27:22;;;;;;;37.13;5.65;;;;;;;12.78;62.68;101975.59;5069280;28;20036;-46
2024/01/24 09:29:47;;;;;;;42.47;5.85;;;;;;;13.58;60.58;101966.78;5070773;28;20060;-45
2024/01/24 09:32:12;;;;;;;37.42;5.07;;;;;;;13.10;61.76;101950.97;5070003;28;20040;-51
2024/01/24 09:34:38;;;;;;;36.85;5.45;;;;;;;12.95;62.46;101966.34;5070877;28;20596;-46
2024/01/24 09:37:03;;;;;;;33.95;5.32;;;;;;;13.01;62.67;101975.22;5070374;28;20036;-50
2024/01/24 09:39:29;;;;;;;43.20;5.47;;;;;;;13.01;61.92;101970.00;5070123;28;20079;-49
2024/01/24 09:41:54;;;;;;;45.92;5.60;;;;;;;13.33;61.45;101991.63;5070912;28;20140;-46
2024/01/24 09:44:19;;;;;;;43.45;5.72;;;;;;;12.84;62.31;101987.06;5052509;28;20041;-47
2024/01/24 09:46:49;;;;;;;43.58;6.15;;;;;;;13.15;62.08;101977.28;5070218;28;20086;-45
2024/01/24 09:49:15;;;;;;;43.15;5.60;;;;;;;13.25;61.24;102005.41;5070225;28;20087;-46
2024/01/24 09:51:41;;;;;;;40.85;5.72;;;;;;;13.24;61.80;101993.16;5070574;28;20044;-49
2024/01/24 09:54:07;;;;;;;39.00;5.95;;;;;;;13.55;60.48;102006.00;5052669;28;20056;-45
2024/01/24 09:56:37;;;;;;;44.65;6.13;;;;;;;13.27;60.50;102022.06;5068421;28;20067;-46
2024/01/24 09:59:04;;;;;;;38.22;5.78;;;;;;;13.07;61.47;102005.88;5070006;28;20506;-45
2024/01/24 10:01:32;;;;;;;41.75;5.68;;;;;;;13.30;61.01;102043.94;5070488;28;20029;-46
2024/01/24 10:03:59;;;;;;;38.83;5.53;;;;;;;13.08;61.61;102046.91;5070775;28;20044;-52
2024/01/24 10:06:25;;;;;;;33.67;5.38;;;;;;;13.37;61.87;102034.47;5069409;28;20040;-47
2024/01/24 10:08:51;;;;;;;38.25;5.35;;;;;;;13.29;60.63;102029.09;5070416;28;20044;-47
2024/01/24 10:11:17;;;;;;;41.67;5.05;;;;;;;13.54;60.65;102046.16;5069927;28;20066;-45
2024/01/24 10:13:43;;;;;;;40.78;5.65;;;;;;;13.57;60.35;102069.81;5070472;28;20431;-44
2024/01/24 10:16:09;;;;;;;43.05;5.50;;;;;;;13.43;60.97;102059.91;5069796;28;20070;-45
2024/01/24 10:18:35;;;;;;;35.28;4.60;;;;;;;13.13;61.44;102081.09;5069865;28;20597;-45
2024/01/24 10:21:04;;;;;;;38.67;5.68;;;;;;;13.64;60.60;102082.19;5070632;28;20068;-45
2024/01/24 10:23:30;;;;;;;36.38;5.45;;;;;;;13.64;60.87;102083.94;5069781;28;20032;-46
2024/01/24 10:25:57;;;;;;;41.22;6.13;;;;;;;13.19;61.27;102087.34;5070484;28;20029;-44
2024/01/24 10:28:23;;;;;;;35.15;5.88;;;;;;;13.15;61.94;102105.59;5070795;28;20045;-44
2024/01/24 10:30:49;;;;;;;40.63;5.57;;;;;;;13.29;61.71;102105.06;5053555;28;20036;-46
2024/01/24 10:33:15;;;;;;;38.85;5.45;;;;;;;13.40;61.72;102081.69;5071314;28;20036;-45
2024/01/24 10:35:42;;;;;;;44.60;5.72;;;;;;;13.08;62.15;102096.66;5071494;28;20089;-45
2024/01/24 10:38:12;;;;;;;38.78;6.00;;;;;;;13.29;61.19;102081.47;5052281;28;20040;-48
2024/01/24 10:40:41;;;;;;;39.35;5.47;;;;;;;13.30;62.20;102112.03;5070140;28;20036;-46
2024/01/24 10:43:13;;;;;;;37.05;5.30;;;;;;;13.17;62.05;102107.41;5070068;28;20131;-45
2024/01/24 10:45:43;;;;;;;41.80;5.68;;;;;;;13.33;61.62;102124.31;5061791;28;20043;-46
2024/01/24 10:48:10;;;;;;;36.83;5.50;;;;;;;13.48;61.39;102131.63;5069977;28;20045;-47
2024/01/24 10:50:37;;;;;;;38.38;5.80;;;;;;;13.04;62.50;102112.28;5069785;28;20477;-45
2024/01/24 10:53:03;;;;;;;38.75;5.50;;;;;;;13.23;60.90;102076.09;5070810;28;20406;-46
2024/01/24 10:55:31;;;;;;;38.38;5.25;;;;;;;13.26;60.74;102106.69;5070269;28;20032;-47
2024/01/24 10:57:56;;;;;;;30.70;4.95;;;;;;;13.39;60.68;102129.69;5070723;28;20051;-50
2024/01/24 11:00:22;;;;;;;31.05;5.15;;;;;;;12.83;61.62;102092.59;5069568;28;20120;-46
2024/01/24 11:02:49;;;;;;;36.60;5.63;;;;;;;13.37;60.60;102134.88;5070252;28;20036;-46
2024/01/24 11:05:37;;;;;;;39.08;5.45;;;;;;;13.14;61.23;102154.44;5068879;28;20040;-45
2024/01/24 11:08:25;;;;;;;34.90;5.40;;;;;;;13.31;60.94;102149.59;5064141;28;20040;-48
2024/01/24 11:10:53;;;;;;;40.53;5.22;;;;;;;13.29;60.96;102148.69;5060651;28;20040;-50
2024/01/24 11:13:21;;;;;;;33.30;5.15;;;;;;;13.64;60.10;102152.06;5069972;28;20056;-46
2024/01/24 11:15:47;;;;;;;33.38;4.85;;;;;;;13.55;60.40;102157.09;5069045;28;20394;-47